sensor_id;sensor_type;location;lat;lon;timestamp;pressure;altitude;pressure_sealevel;temperature;humidity
70925;BME280;58577;52.410;13.242;2023-01-29T00:00:40;-12283.69;;;-2.60;94.96
70925;BME280;58577;52.410;13.242;2023-01-29T00:03:25;-12285.88;;;-2.47;93.93
70925;BME280;58577;52.410;13.242;2023-01-29T00:06:11;-12284.88;;;-2.53;93.96
70925;BME280;58577;52.410;13.242;2023-01-29T00:08:57;-12285.25;;;-2.51;95.43
70925;BME280;58577;52.410;13.242;2023-01-29T00:11:43;-12285.34;;;-2.50;94.22
70925;BME280;58577;52.410;13.242;2023-01-29T00:14:29;-12287.34;;;-2.39;93.38
70925;BME280;58577;52.410;13.242;2023-01-29T00:17:15;-12288.16;;;-2.34;94.08
70925;BME280;58577;52.410;13.242;2023-01-29T00:20:01;-12289.16;;;-2.29;94.35
70925;BME280;58577;52.410;13.242;2023-01-29T00:22:47;-12287.72;;;-2.37;94.43
70925;BME280;58577;52.410;13.242;2023-01-29T00:25:32;-12287.78;;;-2.37;93.28
70925;BME280;58577;52.410;13.242;2023-01-29T00:28:18;-12293.19;;;-2.06;92.79
70925;BME280;58577;52.410;13.242;2023-01-29T00:31:11;-12290.25;;;-2.23;93.55
70925;BME280;58577;52.410;13.242;2023-01-29T00:33:58;-12293.72;;;-2.03;93.55
70925;BME280;58577;52.410;13.242;2023-01-29T00:36:44;-12293.19;;;-2.06;92.40
70925;BME280;58577;52.410;13.242;2023-01-29T00:39:31;-12294.38;;;-2.00;93.05
70925;BME280;58577;52.410;13.242;2023-01-29T00:42:24;-12292.44;;;-2.10;92.89
70925;BME280;58577;52.410;13.242;2023-01-29T00:45:48;-12294.53;;;-1.99;91.45
70925;BME280;58577;52.410;13.242;2023-01-29T00:48:34;-12294.09;;;-2.01;92.77
70925;BME280;58577;52.410;13.242;2023-01-29T00:51:20;-12295.38;;;-1.94;92.87
70925;BME280;58577;52.410;13.242;2023-01-29T00:54:06;-12293.81;;;-2.03;92.13
70925;BME280;58577;52.410;13.242;2023-01-29T00:56:52;-12294.28;;;-2.00;93.04
70925;BME280;58577;52.410;13.242;2023-01-29T00:59:38;-12292.81;;;-2.08;92.04
70925;BME280;58577;52.410;13.242;2023-01-29T01:02:25;-12294.28;;;-2.00;93.02
70925;BME280;58577;52.410;13.242;2023-01-29T01:05:29;-12294.72;;;-1.98;92.52
70925;BME280;58577;52.410;13.242;2023-01-29T01:08:16;-12292.81;;;-2.08;93.73
70925;BME280;58577;52.410;13.242;2023-01-29T01:11:21;-12296.09;;;-1.90;92.53
70925;BME280;58577;52.410;13.242;2023-01-29T01:14:07;-12296.72;;;-1.86;92.64
70925;BME280;58577;52.410;13.242;2023-01-29T01:16:53;-12297.09;;;-1.84;92.93
70925;BME280;58577;52.410;13.242;2023-01-29T01:19:39;-12297.00;;;-1.85;92.27
70925;BME280;58577;52.410;13.242;2023-01-29T01:22:25;-12295.56;;;-1.93;92.70
70925;BME280;58577;52.410;13.242;2023-01-29T01:25:11;-12296.81;;;-1.86;93.72
70925;BME280;58577;52.410;13.242;2023-01-29T01:27:57;-12298.66;;;-1.75;92.56
70925;BME280;58577;52.410;13.242;2023-01-29T01:30:43;-12297.56;;;-1.82;92.55
70925;BME280;58577;52.410;13.242;2023-01-29T01:33:29;-12295.19;;;-1.95;93.21
70925;BME280;58577;52.410;13.242;2023-01-29T01:36:16;-12294.91;;;-1.96;92.90
70925;BME280;58577;52.410;13.242;2023-01-29T01:39:02;-12300.00;;;-1.68;92.45
70925;BME280;58577;52.410;13.242;2023-01-29T01:41:49;-12297.66;;;-1.81;92.19
70925;BME280;58577;52.410;13.242;2023-01-29T01:44:52;-12297.56;;;-1.82;92.75
70925;BME280;58577;52.410;13.242;2023-01-29T01:47:47;-12296.28;;;-1.89;93.32
70925;BME280;58577;52.410;13.242;2023-01-29T01:53:41;-12295.38;;;-1.94;93.62
70925;BME280;58577;52.410;13.242;2023-01-29T01:56:32;-12295.28;;;-1.94;93.50
70925;BME280;58577;52.410;13.242;2023-01-29T01:59:23;-12295.00;;;-1.96;93.98
70925;BME280;58577;52.410;13.242;2023-01-29T02:02:08;-12295.19;;;-1.95;94.60
70925;BME280;58577;52.410;13.242;2023-01-29T02:05:14;-12294.91;;;-1.96;93.54
70925;BME280;58577;52.410;13.242;2023-01-29T02:08:25;-12296.81;;;-1.86;93.35
70925;BME280;58577;52.410;13.242;2023-01-29T02:11:32;-12297.00;;;-1.85;93.60
70925;BME280;58577;52.410;13.242;2023-01-29T02:14:18;-12297.91;;;-1.80;93.36
70925;BME280;58577;52.410;13.242;2023-01-29T02:17:10;-12297.38;;;-1.83;93.90
70925;BME280;58577;52.410;13.242;2023-01-29T02:32:52;-12295.91;;;-1.91;94.72
70925;BME280;58577;52.410;13.242;2023-01-29T02:39:00;-12296.72;;;-1.86;94.03
70925;BME280;58577;52.410;13.242;2023-01-29T02:42:00;-12300.19;;;-1.67;94.77
70925;BME280;58577;52.410;13.242;2023-01-29T02:44:59;-12298.66;;;-1.75;94.78
70925;BME280;58577;52.410;13.242;2023-01-29T02:47:54;-12298.56;;;-1.76;94.35
70925;BME280;58577;52.410;13.242;2023-01-29T02:50:53;-12299.00;;;-1.73;94.83
70925;BME280;58577;52.410;13.242;2023-01-29T02:56:53;-12301.47;;;-1.60;93.60
70925;BME280;58577;52.410;13.242;2023-01-29T02:59:46;-12303.94;;;-1.46;92.66
70925;BME280;58577;52.410;13.242;2023-01-29T03:06:04;-12301.66;;;-1.59;94.23
70925;BME280;58577;52.410;13.242;2023-01-29T03:09:09;-12303.56;;;-1.48;93.77
70925;BME280;58577;52.410;13.242;2023-01-29T03:12:02;-12303.19;;;-1.50;94.38
70925;BME280;58577;52.410;13.242;2023-01-29T03:15:19;-12302.38;;;-1.54;93.65
70925;BME280;58577;52.410;13.242;2023-01-29T03:18:24;-12304.22;;;-1.44;93.44
70925;BME280;58577;52.410;13.242;2023-01-29T03:21:29;-12302.75;;;-1.52;93.21
70925;BME280;58577;52.410;13.242;2023-01-29T03:24:50;-12299.91;;;-1.68;94.50
70925;BME280;58577;52.410;13.242;2023-01-29T03:28:02;-12300.47;;;-1.65;94.68
70925;BME280;58577;52.410;13.242;2023-01-29T03:31:09;-12301.84;;;-1.58;93.85
70925;BME280;58577;52.410;13.242;2023-01-29T03:34:22;-12301.94;;;-1.57;93.96
70925;BME280;58577;52.410;13.242;2023-01-29T03:37:35;-12300.56;;;-1.65;94.72
70925;BME280;58577;52.410;13.242;2023-01-29T03:40:25;-12301.94;;;-1.57;93.49
70925;BME280;58577;52.410;13.242;2023-01-29T03:46:30;-12303.56;;;-1.48;92.97
70925;BME280;58577;52.410;13.242;2023-01-29T03:49:31;-12303.03;;;-1.51;93.81
70925;BME280;58577;52.410;13.242;2023-01-29T03:52:42;-12302.84;;;-1.52;93.84
70925;BME280;58577;52.410;13.242;2023-01-29T04:01:31;-12302.66;;;-1.53;94.70
70925;BME280;58577;52.410;13.242;2023-01-29T04:04:25;-12301.75;;;-1.58;94.23
70925;BME280;58577;52.410;13.242;2023-01-29T04:07:15;-12303.66;;;-1.47;94.51
70925;BME280;58577;52.410;13.242;2023-01-29T04:10:07;-12305.47;;;-1.37;93.79
70925;BME280;58577;52.410;13.242;2023-01-29T04:12:59;-12304.84;;;-1.41;94.61
70925;BME280;58577;52.410;13.242;2023-01-29T04:15:52;-12303.19;;;-1.50;94.89
70925;BME280;58577;52.410;13.242;2023-01-29T04:18:47;-12303.75;;;-1.47;94.73
70925;BME280;58577;52.410;13.242;2023-01-29T04:21:34;-12303.19;;;-1.50;94.45
70925;BME280;58577;52.410;13.242;2023-01-29T04:24:22;-12303.03;;;-1.51;95.03
70925;BME280;58577;52.410;13.242;2023-01-29T04:27:20;-12302.47;;;-1.54;95.49
70925;BME280;58577;52.410;13.242;2023-01-29T04:39:12;-12304.84;;;-1.41;95.65
70925;BME280;58577;52.410;13.242;2023-01-29T04:42:28;-12304.28;;;-1.44;96.04
70925;BME280;58577;52.410;13.242;2023-01-29T04:45:35;-12304.84;;;-1.41;97.08
70925;BME280;58577;52.410;13.242;2023-01-29T04:48:53;-12301.75;;;-1.58;98.55
70925;BME280;58577;52.410;13.242;2023-01-29T04:52:36;-12304.13;;;-1.45;97.98
70925;BME280;58577;52.410;13.242;2023-01-29T04:55:18;-12302.56;;;-1.53;97.84
70925;BME280;58577;52.410;13.242;2023-01-29T05:01:18;-12304.94;;;-1.40;97.15
70925;BME280;58577;52.410;13.242;2023-01-29T05:04:08;-12304.94;;;-1.40;97.54
70925;BME280;58577;52.410;13.242;2023-01-29T05:06:56;-12307.13;;;-1.28;96.48
70925;BME280;58577;52.410;13.242;2023-01-29T05:09:43;-12306.03;;;-1.34;96.94
70925;BME280;58577;52.410;13.242;2023-01-29T05:12:30;-12306.75;;;-1.30;97.09
70925;BME280;58577;52.410;13.242;2023-01-29T05:15:21;-12308.03;;;-1.23;96.36
70925;BME280;58577;52.410;13.242;2023-01-29T05:18:09;-12306.94;;;-1.29;96.83
70925;BME280;58577;52.410;13.242;2023-01-29T05:20:56;-12308.31;;;-1.21;96.44
70925;BME280;58577;52.410;13.242;2023-01-29T05:23:44;-12307.75;;;-1.24;98.56
70925;BME280;58577;52.410;13.242;2023-01-29T05:26:43;-12308.94;;;-1.17;98.74
70925;BME280;58577;52.410;13.242;2023-01-29T05:29:48;-12309.94;;;-1.12;98.80
70925;BME280;58577;52.410;13.242;2023-01-29T05:32:34;-12309.03;;;-1.17;100.00
70925;BME280;58577;52.410;13.242;2023-01-29T05:35:19;-12308.66;;;-1.19;100.00
70925;BME280;58577;52.410;13.242;2023-01-29T05:38:05;-12308.03;;;-1.23;100.00
70925;BME280;58577;52.410;13.242;2023-01-29T05:40:51;-12307.41;;;-1.26;100.00
70925;BME280;58577;52.410;13.242;2023-01-29T05:43:37;-12306.13;;;-1.33;100.00
70925;BME280;58577;52.410;13.242;2023-01-29T05:46:23;-12308.13;;;-1.22;100.00
70925;BME280;58577;52.410;13.242;2023-01-29T05:49:08;-12307.56;;;-1.25;100.00
70925;BME280;58577;52.410;13.242;2023-01-29T05:51:54;-12307.31;;;-1.27;100.00
70925;BME280;58577;52.410;13.242;2023-01-29T05:54:40;-12305.94;;;-1.34;100.00
70925;BME280;58577;52.410;13.242;2023-01-29T05:57:26;-12305.47;;;-1.37;100.00
70925;BME280;58577;52.410;13.242;2023-01-29T06:00:12;-12305.56;;;-1.36;100.00
70925;BME280;58577;52.410;13.242;2023-01-29T06:02:58;-12304.84;;;-1.41;100.00
70925;BME280;58577;52.410;13.242;2023-01-29T06:05:44;-12306.13;;;-1.33;100.00
70925;BME280;58577;52.410;13.242;2023-01-29T06:08:30;-12306.75;;;-1.30;100.00
70925;BME280;58577;52.410;13.242;2023-01-29T06:11:16;-12307.47;;;-1.26;100.00
70925;BME280;58577;52.410;13.242;2023-01-29T06:14:02;-12307.94;;;-1.23;100.00
70925;BME280;58577;52.410;13.242;2023-01-29T06:16:48;-12307.03;;;-1.28;100.00
70925;BME280;58577;52.410;13.242;2023-01-29T06:19:34;-12306.75;;;-1.30;100.00
70925;BME280;58577;52.410;13.242;2023-01-29T06:22:20;-12307.66;;;-1.25;100.00
70925;BME280;58577;52.410;13.242;2023-01-29T06:25:06;-12310.84;;;-1.07;100.00
70925;BME280;58577;52.410;13.242;2023-01-29T06:27:52;-12309.22;;;-1.16;100.00
70925;BME280;58577;52.410;13.242;2023-01-29T06:30:38;-12308.94;;;-1.17;100.00
70925;BME280;58577;52.410;13.242;2023-01-29T06:33:24;-12308.22;;;-1.22;100.00
70925;BME280;58577;52.410;13.242;2023-01-29T06:36:10;-12309.41;;;-1.15;100.00
70925;BME280;58577;52.410;13.242;2023-01-29T06:38:56;-12309.22;;;-1.16;100.00
70925;BME280;58577;52.410;13.242;2023-01-29T06:41:41;-12308.13;;;-1.22;100.00
70925;BME280;58577;52.410;13.242;2023-01-29T06:44:27;-12310.03;;;-1.11;100.00
70925;BME280;58577;52.410;13.242;2023-01-29T06:47:13;-12310.03;;;-1.11;100.00
70925;BME280;58577;52.410;13.242;2023-01-29T06:49:59;-12309.84;;;-1.12;100.00
70925;BME280;58577;52.410;13.242;2023-01-29T06:52:45;-12310.13;;;-1.11;100.00
70925;BME280;58577;52.410;13.242;2023-01-29T06:55:31;-12311.50;;;-1.03;100.00
70925;BME280;58577;52.410;13.242;2023-01-29T06:58:17;-12312.50;;;-0.97;100.00
70925;BME280;58577;52.410;13.242;2023-01-29T07:01:04;-12311.59;;;-1.03;100.00
70925;BME280;58577;52.410;13.242;2023-01-29T07:03:50;-12312.50;;;-0.97;100.00
70925;BME280;58577;52.410;13.242;2023-01-29T07:06:36;-12311.84;;;-1.01;100.00
70925;BME280;58577;52.410;13.242;2023-01-29T07:09:22;-12311.84;;;-1.01;100.00
70925;BME280;58577;52.410;13.242;2023-01-29T07:12:09;-12312.69;;;-0.96;100.00
70925;BME280;58577;52.410;13.242;2023-01-29T07:14:55;-12312.84;;;-0.95;100.00
70925;BME280;58577;52.410;13.242;2023-01-29T07:17:41;-12313.94;;;-0.89;100.00
70925;BME280;58577;52.410;13.242;2023-01-29T07:20:28;-12314.13;;;-0.88;100.00
70925;BME280;58577;52.410;13.242;2023-01-29T07:23:14;-12314.03;;;-0.89;100.00
70925;BME280;58577;52.410;13.242;2023-01-29T07:26:04;-12312.84;;;-0.95;100.00
70925;BME280;58577;52.410;13.242;2023-01-29T07:28:50;-12311.69;;;-1.02;100.00
70925;BME280;58577;52.410;13.242;2023-01-29T07:31:36;-12313.59;;;-0.91;100.00
70925;BME280;58577;52.410;13.242;2023-01-29T07:34:22;-12314.50;;;-0.86;100.00
70925;BME280;58577;52.410;13.242;2023-01-29T07:37:08;-12314.13;;;-0.88;100.00
70925;BME280;58577;52.410;13.242;2023-01-29T07:39:54;-12312.31;;;-0.98;100.00
70925;BME280;58577;52.410;13.242;2023-01-29T07:42:39;-12312.50;;;-0.97;100.00
70925;BME280;58577;52.410;13.242;2023-01-29T07:45:29;-12313.13;;;-0.94;100.00
70925;BME280;58577;52.410;13.242;2023-01-29T07:48:15;-12315.41;;;-0.81;100.00
70925;BME280;58577;52.410;13.242;2023-01-29T07:51:00;-12314.84;;;-0.84;100.00
70925;BME280;58577;52.410;13.242;2023-01-29T07:53:46;-12315.22;;;-0.82;100.00
70925;BME280;58577;52.410;13.242;2023-01-29T07:56:32;-12313.69;;;-0.91;100.00
70925;BME280;58577;52.410;13.242;2023-01-29T07:59:18;-12315.41;;;-0.81;100.00
70925;BME280;58577;52.410;13.242;2023-01-29T08:02:04;-12314.59;;;-0.86;100.00
70925;BME280;58577;52.410;13.242;2023-01-29T08:04:49;-12315.31;;;-0.82;100.00
70925;BME280;58577;52.410;13.242;2023-01-29T08:07:35;-12317.03;;;-0.72;100.00
70925;BME280;58577;52.410;13.242;2023-01-29T08:10:21;-12317.22;;;-0.71;100.00
70925;BME280;58577;52.410;13.242;2023-01-29T08:13:07;-12316.50;;;-0.75;100.00
70925;BME280;58577;52.410;13.242;2023-01-29T08:15:57;-12317.94;;;-0.67;100.00
70925;BME280;58577;52.410;13.242;2023-01-29T08:18:43;-12317.50;;;-0.69;100.00
70925;BME280;58577;52.410;13.242;2023-01-29T08:21:32;-12318.97;;;-0.61;100.00
70925;BME280;58577;52.410;13.242;2023-01-29T08:24:17;-12318.88;;;-0.62;100.00
70925;BME280;58577;52.410;13.242;2023-01-29T08:27:03;-12317.88;;;-0.67;100.00
70925;BME280;58577;52.410;13.242;2023-01-29T08:29:49;-12317.22;;;-0.71;100.00
70925;BME280;58577;52.410;13.242;2023-01-29T08:32:35;-12317.13;;;-0.71;100.00
70925;BME280;58577;52.410;13.242;2023-01-29T08:35:21;-12316.88;;;-0.73;100.00
70925;BME280;58577;52.410;13.242;2023-01-29T08:38:08;-12319.13;;;-0.60;100.00
70925;BME280;58577;52.410;13.242;2023-01-29T08:40:53;-12318.13;;;-0.66;100.00
70925;BME280;58577;52.410;13.242;2023-01-29T08:43:40;-12318.69;;;-0.63;100.00
70925;BME280;58577;52.410;13.242;2023-01-29T08:46:26;-12318.31;;;-0.65;100.00
70925;BME280;58577;52.410;13.242;2023-01-29T08:49:12;-12319.69;;;-0.57;100.00
70925;BME280;58577;52.410;13.242;2023-01-29T08:51:58;-12322.06;;;-0.44;100.00
70925;BME280;58577;52.410;13.242;2023-01-29T08:54:44;-12321.88;;;-0.45;100.00
70925;BME280;58577;52.410;13.242;2023-01-29T08:57:29;-12320.50;;;-0.52;100.00
70925;BME280;58577;52.410;13.242;2023-01-29T09:00:16;-12323.78;;;-0.34;100.00
70925;BME280;58577;52.410;13.242;2023-01-29T09:03:02;-12322.69;;;-0.40;100.00
70925;BME280;58577;52.410;13.242;2023-01-29T09:05:48;-12323.50;;;-0.35;100.00
70925;BME280;58577;52.410;13.242;2023-01-29T09:08:34;-12325.22;;;-0.26;100.00
70925;BME280;58577;52.410;13.242;2023-01-29T09:11:19;-12326.06;;;-0.21;100.00
70925;BME280;58577;52.410;13.242;2023-01-29T09:14:05;-12328.22;;;-0.09;100.00
70925;BME280;58577;52.410;13.242;2023-01-29T09:16:51;-12329.69;;;-0.01;100.00
70925;BME280;58577;52.410;13.242;2023-01-29T09:19:40;-12331.59;;;0.10;100.00
70925;BME280;58577;52.410;13.242;2023-01-29T09:22:26;-12332.13;;;0.13;100.00
70925;BME280;58577;52.410;13.242;2023-01-29T09:25:12;-12334.22;;;0.25;100.00
70925;BME280;58577;52.410;13.242;2023-01-29T09:27:58;-12335.88;;;0.34;100.00
70925;BME280;58577;52.410;13.242;2023-01-29T09:30:44;-12335.97;;;0.35;100.00
70925;BME280;58577;52.410;13.242;2023-01-29T09:33:30;-12336.69;;;0.39;100.00
70925;BME280;58577;52.410;13.242;2023-01-29T09:36:16;-12337.50;;;0.44;100.00
70925;BME280;58577;52.410;13.242;2023-01-29T09:39:02;-12337.41;;;0.43;100.00
70925;BME280;58577;52.410;13.242;2023-01-29T09:44:55;-12338.88;;;0.51;100.00
70925;BME280;58577;52.410;13.242;2023-01-29T09:47:42;-12339.69;;;0.56;100.00
70925;BME280;58577;52.410;13.242;2023-01-29T09:50:37;-12340.13;;;0.58;100.00
70925;BME280;58577;52.410;13.242;2023-01-29T09:53:29;-12340.78;;;0.62;100.00
70925;BME280;58577;52.410;13.242;2023-01-29T09:56:20;-12343.31;;;0.76;100.00
70925;BME280;58577;52.410;13.242;2023-01-29T09:59:10;-12346.22;;;0.93;100.00
70925;BME280;58577;52.410;13.242;2023-01-29T10:21:42;-12387.66;;;3.27;85.06
70925;BME280;58577;52.410;13.242;2023-01-29T10:27:35;-12394.88;;;3.68;83.85
70925;BME280;58577;52.410;13.242;2023-01-29T10:30:39;-12386.75;;;3.22;83.59
70925;BME280;58577;52.410;13.242;2023-01-29T10:33:42;-12385.56;;;3.15;84.68
70925;BME280;58577;52.410;13.242;2023-01-29T10:36:43;-12386.56;;;3.21;84.65
70925;BME280;58577;52.410;13.242;2023-01-29T10:39:30;-12384.66;;;3.10;85.90
70925;BME280;58577;52.410;13.242;2023-01-29T10:42:27;-12386.38;;;3.20;85.02
70925;BME280;58577;52.410;13.242;2023-01-29T10:45:28;-12384.03;;;3.07;84.49
70925;BME280;58577;52.410;13.242;2023-01-29T10:48:23;-12380.59;;;2.87;85.01
70925;BME280;58577;52.410;13.242;2023-01-29T10:51:32;-12378.88;;;2.78;88.13
70925;BME280;58577;52.410;13.242;2023-01-29T10:58:00;-12378.41;;;2.75;85.56
70925;BME280;58577;52.410;13.242;2023-01-29T11:00:49;-12378.22;;;2.74;87.53
70925;BME280;58577;52.410;13.242;2023-01-29T11:03:36;-12380.03;;;2.84;85.96
70925;BME280;58577;52.410;13.242;2023-01-29T11:06:22;-12377.31;;;2.69;86.43
70925;BME280;58577;52.410;13.242;2023-01-29T11:09:31;-12379.41;;;2.81;87.59
70925;BME280;58577;52.410;13.242;2023-01-29T11:12:23;-12378.31;;;2.74;85.38
70925;BME280;58577;52.410;13.242;2023-01-29T11:15:15;-12374.78;;;2.54;85.82
70925;BME280;58577;52.410;13.242;2023-01-29T11:20:59;-12376.16;;;2.62;86.61
70925;BME280;58577;52.410;13.242;2023-01-29T11:23:46;-12372.72;;;2.43;87.01
70925;BME280;58577;52.410;13.242;2023-01-29T11:26:38;-12373.06;;;2.45;86.29
70925;BME280;58577;52.410;13.242;2023-01-29T11:29:39;-12373.06;;;2.45;86.85
70925;BME280;58577;52.410;13.242;2023-01-29T11:32:33;-12372.88;;;2.44;87.42
70925;BME280;58577;52.410;13.242;2023-01-29T11:35:21;-12374.44;;;2.52;87.26
70925;BME280;58577;52.410;13.242;2023-01-29T11:38:25;-12373.88;;;2.49;87.74
70925;BME280;58577;52.410;13.242;2023-01-29T11:41:15;-12376.50;;;2.64;86.00
70925;BME280;58577;52.410;13.242;2023-01-29T11:50:01;-12378.13;;;2.73;85.75
70925;BME280;58577;52.410;13.242;2023-01-29T11:52:47;-12376.41;;;2.64;85.98
70925;BME280;58577;52.410;13.242;2023-01-29T11:55:34;-12377.41;;;2.69;86.39
70925;BME280;58577;52.410;13.242;2023-01-29T12:01:10;-12375.25;;;2.57;87.98
70925;BME280;58577;52.410;13.242;2023-01-29T12:03:56;-12380.03;;;2.84;86.80
70925;BME280;58577;52.410;13.242;2023-01-29T12:06:44;-12379.59;;;2.82;86.06
70925;BME280;58577;52.410;13.242;2023-01-29T12:09:32;-12379.22;;;2.80;85.74
70925;BME280;58577;52.410;13.242;2023-01-29T12:12:30;-12379.78;;;2.83;84.82
70925;BME280;58577;52.410;13.242;2023-01-29T12:15:21;-12378.97;;;2.78;84.05
70925;BME280;58577;52.410;13.242;2023-01-29T12:21:32;-12379.69;;;2.82;86.08
70925;BME280;58577;52.410;13.242;2023-01-29T12:28:05;-12380.50;;;2.87;85.25
70925;BME280;58577;52.410;13.242;2023-01-29T12:31:13;-12380.94;;;2.89;85.78
70925;BME280;58577;52.410;13.242;2023-01-29T12:34:25;-12378.97;;;2.78;84.73
70925;BME280;58577;52.410;13.242;2023-01-29T12:37:24;-12376.88;;;2.66;86.86
70925;BME280;58577;52.410;13.242;2023-01-29T12:40:14;-12377.88;;;2.72;85.27
70925;BME280;58577;52.410;13.242;2023-01-29T12:43:10;-12376.34;;;2.63;86.13
70925;BME280;58577;52.410;13.242;2023-01-29T12:45:58;-12374.69;;;2.54;85.24
70925;BME280;58577;52.410;13.242;2023-01-29T12:48:46;-12372.97;;;2.44;86.75
70925;BME280;58577;52.410;13.242;2023-01-29T12:51:37;-12372.06;;;2.39;86.68
70925;BME280;58577;52.410;13.242;2023-01-29T12:54:38;-12372.16;;;2.40;86.14
70925;BME280;58577;52.410;13.242;2023-01-29T12:57:41;-12371.34;;;2.35;86.29
70925;BME280;58577;52.410;13.242;2023-01-29T13:00:37;-12370.63;;;2.31;87.68
70925;BME280;58577;52.410;13.242;2023-01-29T13:06:13;-12370.63;;;2.31;88.10
70925;BME280;58577;52.410;13.242;2023-01-29T13:09:03;-12372.16;;;2.40;88.54
70925;BME280;58577;52.410;13.242;2023-01-29T13:11:55;-12373.16;;;2.45;87.94
70925;BME280;58577;52.410;13.242;2023-01-29T13:14:56;-12373.44;;;2.47;87.83
70925;BME280;58577;52.410;13.242;2023-01-29T13:17:50;-12373.44;;;2.47;86.57
70925;BME280;58577;52.410;13.242;2023-01-29T13:20:37;-12369.44;;;2.24;87.35
70925;BME280;58577;52.410;13.242;2023-01-29T13:23:31;-12369.19;;;2.23;87.38
70925;BME280;58577;52.410;13.242;2023-01-29T13:26:19;-12368.19;;;2.17;88.91
70925;BME280;58577;52.410;13.242;2023-01-29T13:29:05;-12368.19;;;2.17;89.19
70925;BME280;58577;52.410;13.242;2023-01-29T13:31:53;-12367.91;;;2.15;88.85
70925;BME280;58577;52.410;13.242;2023-01-29T13:34:44;-12367.53;;;2.13;88.08
70925;BME280;58577;52.410;13.242;2023-01-29T13:37:40;-12365.53;;;2.02;89.19
70925;BME280;58577;52.410;13.242;2023-01-29T13:40:31;-12365.28;;;2.01;88.65
70925;BME280;58577;52.410;13.242;2023-01-29T13:43:20;-12363.81;;;1.92;89.32
70925;BME280;58577;52.410;13.242;2023-01-29T13:46:16;-12363.56;;;1.91;89.53
70925;BME280;58577;52.410;13.242;2023-01-29T13:49:23;-12363.28;;;1.89;89.48
70925;BME280;58577;52.410;13.242;2023-01-29T13:52:34;-12362.28;;;1.84;90.62
70925;BME280;58577;52.410;13.242;2023-01-29T13:55:25;-12362.28;;;1.84;91.34
70925;BME280;58577;52.410;13.242;2023-01-29T13:58:51;-12360.38;;;1.73;92.06
70925;BME280;58577;52.410;13.242;2023-01-29T14:04:33;-12359.75;;;1.69;93.67
70925;BME280;58577;52.410;13.242;2023-01-29T14:07:48;-12360.28;;;1.72;93.04
70925;BME280;58577;52.410;13.242;2023-01-29T14:10:36;-12360.09;;;1.71;93.75
70925;BME280;58577;52.410;13.242;2023-01-29T14:13:26;-12359.19;;;1.66;94.23
70925;BME280;58577;52.410;13.242;2023-01-29T14:18:59;-12358.56;;;1.63;95.23
70925;BME280;58577;52.410;13.242;2023-01-29T14:21:48;-12358.66;;;1.63;95.56
70925;BME280;58577;52.410;13.242;2023-01-29T14:24:34;-12356.66;;;1.52;98.28
70925;BME280;58577;52.410;13.242;2023-01-29T14:27:22;-12357.38;;;1.56;98.93
70925;BME280;58577;52.410;13.242;2023-01-29T14:30:15;-12356.66;;;1.52;99.82
70925;BME280;58577;52.410;13.242;2023-01-29T14:33:02;-12354.66;;;1.41;100.00
70925;BME280;58577;52.410;13.242;2023-01-29T14:35:51;-12353.41;;;1.33;100.00
70925;BME280;58577;52.410;13.242;2023-01-29T14:38:39;-12353.56;;;1.34;100.00
70925;BME280;58577;52.410;13.242;2023-01-29T14:41:32;-12349.94;;;1.14;100.00
70925;BME280;58577;52.410;13.242;2023-01-29T14:44:46;-12350.41;;;1.16;100.00
70925;BME280;58577;52.410;13.242;2023-01-29T14:56:18;-12348.59;;;1.06;100.00
70925;BME280;58577;52.410;13.242;2023-01-29T14:59:28;-12349.22;;;1.10;100.00
70925;BME280;58577;52.410;13.242;2023-01-29T15:02:26;-12348.13;;;1.04;100.00
70925;BME280;58577;52.410;13.242;2023-01-29T15:05:19;-12347.22;;;0.98;100.00
70925;BME280;58577;52.410;13.242;2023-01-29T15:11:21;-12346.50;;;0.94;100.00
70925;BME280;58577;52.410;13.242;2023-01-29T15:14:21;-12346.31;;;0.93;100.00
70925;BME280;58577;52.410;13.242;2023-01-29T15:17:22;-12345.41;;;0.88;100.00
70925;BME280;58577;52.410;13.242;2023-01-29T15:20:33;-12342.50;;;0.72;100.00
70925;BME280;58577;52.410;13.242;2023-01-29T15:23:27;-12342.50;;;0.72;100.00
70925;BME280;58577;52.410;13.242;2023-01-29T15:26:17;-12342.03;;;0.69;100.00
70925;BME280;58577;52.410;13.242;2023-01-29T15:29:04;-12339.88;;;0.57;100.00
70925;BME280;58577;52.410;13.242;2023-01-29T15:31:50;-12341.13;;;0.64;100.00
70925;BME280;58577;52.410;13.242;2023-01-29T15:34:36;-12341.69;;;0.67;100.00
70925;BME280;58577;52.410;13.242;2023-01-29T15:37:31;-12339.41;;;0.54;100.00
70925;BME280;58577;52.410;13.242;2023-01-29T15:40:18;-12339.88;;;0.57;100.00
70925;BME280;58577;52.410;13.242;2023-01-29T15:43:19;-12339.50;;;0.55;100.00
70925;BME280;58577;52.410;13.242;2023-01-29T15:46:15;-12339.22;;;0.53;100.00
70925;BME280;58577;52.410;13.242;2023-01-29T15:49:09;-12339.59;;;0.55;100.00
70925;BME280;58577;52.410;13.242;2023-01-29T15:52:02;-12338.97;;;0.52;100.00
70925;BME280;58577;52.410;13.242;2023-01-29T15:54:49;-12340.78;;;0.62;100.00
70925;BME280;58577;52.410;13.242;2023-01-29T15:57:39;-12340.41;;;0.60;100.00
70925;BME280;58577;52.410;13.242;2023-01-29T16:00:27;-12338.88;;;0.51;100.00
70925;BME280;58577;52.410;13.242;2023-01-29T16:03:14;-12340.50;;;0.61;100.00
70925;BME280;58577;52.410;13.242;2023-01-29T16:06:01;-12339.59;;;0.55;100.00
70925;BME280;58577;52.410;13.242;2023-01-29T16:08:51;-12340.31;;;0.59;100.00
70925;BME280;58577;52.410;13.242;2023-01-29T16:11:38;-12341.03;;;0.64;100.00
70925;BME280;58577;52.410;13.242;2023-01-29T16:14:25;-12340.31;;;0.59;100.00
70925;BME280;58577;52.410;13.242;2023-01-29T16:17:29;-12340.50;;;0.61;100.00
70925;BME280;58577;52.410;13.242;2023-01-29T16:20:33;-12340.13;;;0.58;100.00
70925;BME280;58577;52.410;13.242;2023-01-29T16:23:25;-12339.13;;;0.53;100.00
70925;BME280;58577;52.410;13.242;2023-01-29T16:26:19;-12339.50;;;0.55;100.00
70925;BME280;58577;52.410;13.242;2023-01-29T16:29:18;-12339.31;;;0.54;100.00
70925;BME280;58577;52.410;13.242;2023-01-29T16:32:07;-12338.69;;;0.50;100.00
70925;BME280;58577;52.410;13.242;2023-01-29T16:34:56;-12336.78;;;0.39;100.00
70925;BME280;58577;52.410;13.242;2023-01-29T16:37:47;-12339.41;;;0.54;100.00
70925;BME280;58577;52.410;13.242;2023-01-29T16:40:36;-12339.06;;;0.52;100.00